Time;durP1;ratioP1;P1;durP2;ratioP2;P2;SDS_P1;SDS_P2;PMS_P1;PMS_P2;Temp;Humidity;BMP_temperature;BMP_pressure;BME280_temperature;BME280_humidity;BME280_pressure;Samples;Min_cycle;Max_cycle;Signal;HPM_P1;HPM_P2
2021/07/15 00:01:49;;;;;;;6.15;1.70;;;;;;;;;;5055331;28;20021;-69
2021/07/15 00:04:15;;;;;;;3.83;1.45;;;;;;;;;;5055234;28;20029;-71
2021/07/15 00:06:41;;;;;;;4.80;1.52;;;;;;;;;;5055178;28;20389;-69
2021/07/15 00:09:12;;;;;;;6.28;1.70;;;;;;;;;;5055224;28;20064;-69
2021/07/15 00:11:38;;;;;;;5.50;1.70;;;;;;;;;;5054992;28;20021;-71
2021/07/15 00:14:04;;;;;;;9.05;1.55;;;;;;;;;;5055007;28;20052;-70
2021/07/15 00:16:31;;;;;;;8.10;2.00;;;;;;;;;;5055037;28;20017;-69
2021/07/15 00:18:57;;;;;;;4.03;1.50;;;;;;;;;;5055141;28;20028;-70
2021/07/15 00:21:31;;;;;;;9.15;2.08;;;;;;;;;;5055028;28;20017;-70
2021/07/15 00:23:57;;;;;;;7.63;2.58;;;;;;;;;;5054941;28;20053;-71
2021/07/15 00:26:24;;;;;;;8.57;1.52;;;;;;;;;;5054859;28;20061;-70
2021/07/15 00:28:50;;;;;;;5.30;1.75;;;;;;;;;;5054705;28;20025;-71
2021/07/15 00:31:17;;;;;;;10.48;1.75;;;;;;;;;;5054643;28;20025;-70
2021/07/15 00:33:45;;;;;;;11.25;2.08;;;;;;;;;;5054655;28;20466;-70
2021/07/15 00:36:12;;;;;;;6.75;1.80;;;;;;;;;;5054407;28;20032;-69
2021/07/15 00:38:38;;;;;;;4.63;1.50;;;;;;;;;;5054638;28;20474;-69
2021/07/15 00:41:05;;;;;;;6.90;1.40;;;;;;;;;;5054497;28;20171;-71
2021/07/15 00:43:31;;;;;;;7.53;1.65;;;;;;;;;;5054339;28;20021;-70
2021/07/15 00:45:57;;;;;;;6.60;1.70;;;;;;;;;;5054704;28;20127;-71
2021/07/15 00:48:23;;;;;;;6.78;1.60;;;;;;;;;;5054558;28;20029;-69
2021/07/15 00:50:49;;;;;;;8.50;1.80;;;;;;;;;;5054200;28;20044;-69
2021/07/15 00:53:17;;;;;;;12.35;1.70;;;;;;;;;;5054472;28;20017;-70
2021/07/15 00:55:44;;;;;;;5.22;2.10;;;;;;;;;;5052948;28;20490;-70
2021/07/15 00:58:11;;;;;;;5.80;1.80;;;;;;;;;;5052875;28;20025;-72
2021/07/15 01:00:38;;;;;;;7.15;1.80;;;;;;;;;;5051672;28;20036;-69
2021/07/15 01:03:05;;;;;;;9.18;1.65;;;;;;;;;;5051287;28;20493;-69
2021/07/15 01:05:35;;;;;;;6.65;1.98;;;;;;;;;;5053142;28;20580;-70
2021/07/15 01:08:02;;;;;;;7.82;1.50;;;;;;;;;;5054035;28;20013;-70
2021/07/15 01:10:30;;;;;;;4.60;1.55;;;;;;;;;;5053782;28;20048;-70
2021/07/15 01:13:15;;;;;;;7.50;1.50;;;;;;;;;;5052957;28;20017;-67
2021/07/15 01:16:00;;;;;;;8.48;1.90;;;;;;;;;;5052432;28;20408;-69
2021/07/15 01:18:41;;;;;;;8.63;1.83;;;;;;;;;;5053935;28;20103;-69
2021/07/15 01:21:10;;;;;;;5.10;1.48;;;;;;;;;;5053302;28;20025;-71
2021/07/15 01:23:58;;;;;;;8.70;1.65;;;;;;;;;;5053741;28;20025;-70
2021/07/15 01:26:42;;;;;;;12.15;1.65;;;;;;;;;;5053395;28;20037;-70
2021/07/15 01:29:30;;;;;;;4.60;1.50;;;;;;;;;;5053434;28;20024;-69
2021/07/15 01:31:57;;;;;;;7.03;1.50;;;;;;;;;;5053499;28;20025;-70
2021/07/15 01:34:24;;;;;;;8.18;1.73;;;;;;;;;;5053443;28;20025;-71
2021/07/15 01:36:51;;;;;;;8.77;2.28;;;;;;;;;;5053280;28;20058;-71
2021/07/15 01:39:20;;;;;;;5.47;1.67;;;;;;;;;;5053368;28;20029;-71
2021/07/15 01:41:47;;;;;;;8.13;1.90;;;;;;;;;;5053105;28;20028;-72
2021/07/15 01:44:17;;;;;;;6.85;1.60;;;;;;;;;;5053226;28;20523;-71
2021/07/15 01:46:44;;;;;;;8.45;1.60;;;;;;;;;;5053394;28;20079;-71
2021/07/15 01:49:10;;;;;;;5.68;1.48;;;;;;;;;;5053490;28;20035;-71
2021/07/15 01:51:37;;;;;;;8.32;1.95;;;;;;;;;;5053032;28;20104;-70
2021/07/15 01:54:04;;;;;;;12.57;1.77;;;;;;;;;;5053278;28;20040;-70
2021/07/15 01:56:31;;;;;;;11.23;1.85;;;;;;;;;;5053323;28;20470;-70
2021/07/15 01:58:57;;;;;;;8.15;1.63;;;;;;;;;;5053245;28;20448;-70
2021/07/15 02:01:24;;;;;;;6.32;1.70;;;;;;;;;;5052680;28;20020;-70
2021/07/15 02:03:52;;;;;;;7.93;1.60;;;;;;;;;;5053358;28;20469;-70
2021/07/15 02:06:19;;;;;;;9.20;1.33;;;;;;;;;;5052882;28;20040;-71
2021/07/15 02:08:46;;;;;;;11.05;1.85;;;;;;;;;;5053028;28;20100;-70
2021/07/15 02:11:13;;;;;;;8.13;1.55;;;;;;;;;;5053124;28;20474;-70
2021/07/15 02:13:40;;;;;;;6.88;1.80;;;;;;;;;;5053106;28;20116;-70
2021/07/15 02:16:07;;;;;;;6.43;1.80;;;;;;;;;;5052670;28;20061;-69
2021/07/15 02:18:33;;;;;;;6.18;2.78;;;;;;;;;;5053058;28;20048;-69
2021/07/15 02:20:59;;;;;;;5.97;1.52;;;;;;;;;;5053076;28;20089;-70
2021/07/15 02:23:27;;;;;;;9.48;1.60;;;;;;;;;;5052711;28;20024;-70
2021/07/15 02:25:55;;;;;;;6.65;1.58;;;;;;;;;;5052735;28;20040;-70
2021/07/15 02:28:22;;;;;;;6.47;1.70;;;;;;;;;;5052936;28;20099;-70
2021/07/15 02:30:50;;;;;;;14.25;1.70;;;;;;;;;;5052689;28;20025;-70
2021/07/15 02:33:18;;;;;;;13.80;1.58;;;;;;;;;;5052711;28;20029;-71
2021/07/15 02:35:47;;;;;;;4.47;1.30;;;;;;;;;;5052776;28;20035;-70
2021/07/15 02:38:14;;;;;;;5.75;1.73;;;;;;;;;;5052754;28;20029;-70
2021/07/15 02:40:41;;;;;;;8.00;1.50;;;;;;;;;;5052599;28;20473;-70
2021/07/15 02:43:07;;;;;;;6.82;1.73;;;;;;;;;;5052510;28;20420;-69
2021/07/15 02:45:33;;;;;;;7.63;1.75;;;;;;;;;;5052805;28;20453;-70
2021/07/15 02:47:59;;;;;;;5.00;1.42;;;;;;;;;;5052739;28;20373;-70
2021/07/15 02:50:26;;;;;;;6.80;1.40;;;;;;;;;;5052455;28;20036;-70
2021/07/15 02:52:53;;;;;;;7.22;1.60;;;;;;;;;;5052835;28;20025;-70
2021/07/15 02:55:19;;;;;;;6.45;1.55;;;;;;;;;;5052781;28;20021;-70
2021/07/15 02:58:08;;;;;;;7.63;1.52;;;;;;;;;;5052704;28;20021;-68
2021/07/15 03:00:42;;;;;;;7.43;1.63;;;;;;;;;;5052435;28;20478;-70
2021/07/15 03:03:21;;;;;;;8.57;1.95;;;;;;;;;;5052549;28;20021;-70
2021/07/15 03:05:50;;;;;;;10.15;1.73;;;;;;;;;;5052585;28;20459;-71
2021/07/15 03:08:20;;;;;;;6.55;1.50;;;;;;;;;;5052515;28;20097;-70
2021/07/15 03:10:48;;;;;;;11.25;2.13;;;;;;;;;;5052458;28;20032;-70
2021/07/15 03:13:15;;;;;;;5.13;1.67;;;;;;;;;;5052564;28;20028;-69
2021/07/15 03:15:42;;;;;;;8.00;1.83;;;;;;;;;;5056165;28;20124;-71
2021/07/15 03:18:08;;;;;;;10.38;1.95;;;;;;;;;;5056313;28;20067;-70
2021/07/15 03:20:42;;;;;;;5.40;1.60;;;;;;;;;;5056071;28;20524;-71
2021/07/15 03:23:11;;;;;;;8.15;2.10;;;;;;;;;;5055959;28;20082;-69
2021/07/15 03:25:37;;;;;;;5.97;1.90;;;;;;;;;;5055796;28;20025;-69
2021/07/15 03:28:07;;;;;;;7.20;2.05;;;;;;;;;;5056085;28;20040;-70
2021/07/15 03:30:34;;;;;;;4.78;1.55;;;;;;;;;;5056010;28;20163;-69
2021/07/15 03:33:00;;;;;;;5.90;1.80;;;;;;;;;;5055885;28;20538;-69
2021/07/15 03:35:27;;;;;;;8.90;1.85;;;;;;;;;;5055625;28;20021;-69
2021/07/15 03:37:54;;;;;;;8.10;2.30;;;;;;;;;;5055617;28;20036;-69
2021/07/15 03:40:23;;;;;;;6.82;2.20;;;;;;;;;;5055674;28;20021;-70
2021/07/15 03:42:49;;;;;;;7.43;2.05;;;;;;;;;;5055884;28;20029;-70
2021/07/15 03:45:16;;;;;;;8.13;2.00;;;;;;;;;;5055393;28;20143;-67
2021/07/15 03:47:43;;;;;;;9.30;2.35;;;;;;;;;;5055454;28;20021;-69
2021/07/15 03:50:12;;;;;;;6.75;1.95;;;;;;;;;;5055820;28;20445;-70
2021/07/15 03:52:39;;;;;;;13.63;1.80;;;;;;;;;;5055611;28;20029;-68
2021/07/15 03:55:06;;;;;;;13.13;1.98;;;;;;;;;;5055392;28;20539;-69
2021/07/15 03:57:33;;;;;;;8.02;1.70;;;;;;;;;;5055244;28;20021;-70
2021/07/15 03:59:59;;;;;;;5.45;1.60;;;;;;;;;;5055494;28;20535;-69
2021/07/15 04:02:30;;;;;;;9.68;2.10;;;;;;;;;;5055200;28;20021;-70
2021/07/15 04:04:57;;;;;;;8.13;1.80;;;;;;;;;;5055292;28;20381;-68
2021/07/15 04:07:25;;;;;;;7.90;1.90;;;;;;;;;;5055273;28;20450;-71
2021/07/15 04:09:51;;;;;;;12.27;1.92;;;;;;;;;;5055201;28;20063;-70
2021/07/15 04:12:22;;;;;;;8.23;2.00;;;;;;;;;;5055254;28;20032;-71
2021/07/15 04:14:48;;;;;;;11.00;2.50;;;;;;;;;;5054858;28;20044;-71
2021/07/15 04:17:15;;;;;;;6.50;1.70;;;;;;;;;;5055092;28;20538;-70
2021/07/15 04:19:41;;;;;;;6.15;1.65;;;;;;;;;;5055180;28;20485;-71
2021/07/15 04:22:09;;;;;;;6.82;1.90;;;;;;;;;;5054968;28;20036;-70
2021/07/15 04:24:36;;;;;;;5.15;1.85;;;;;;;;;;5054287;28;20068;-69
2021/07/15 04:27:04;;;;;;;9.15;1.70;;;;;;;;;;5054777;28;20029;-68
2021/07/15 04:29:31;;;;;;;5.82;1.75;;;;;;;;;;5054740;28;20056;-70
2021/07/15 04:32:00;;;;;;;11.52;2.78;;;;;;;;;;5055274;28;20563;-69
2021/07/15 04:34:27;;;;;;;6.78;1.67;;;;;;;;;;5054762;28;20048;-67
2021/07/15 04:36:53;;;;;;;8.85;2.22;;;;;;;;;;5053413;28;20028;-67
2021/07/15 04:39:20;;;;;;;7.72;1.80;;;;;;;;;;5054516;28;20535;-65
2021/07/15 04:41:46;;;;;;;7.07;1.65;;;;;;;;;;5053400;28;20025;-70
2021/07/15 04:44:13;;;;;;;7.20;1.83;;;;;;;;;;5054591;28;20071;-69
2021/07/15 04:46:39;;;;;;;11.02;1.92;;;;;;;;;;5054467;28;20032;-68
2021/07/15 04:49:07;;;;;;;7.72;1.90;;;;;;;;;;5054770;28;20095;-66
2021/07/15 04:51:33;;;;;;;6.68;1.90;;;;;;;;;;5054361;28;20035;-70
2021/07/15 04:53:59;;;;;;;8.57;2.20;;;;;;;;;;5054258;28;20043;-70
2021/07/15 04:56:25;;;;;;;4.80;1.45;;;;;;;;;;5054261;28;20112;-70
2021/07/15 04:58:52;;;;;;;10.52;2.05;;;;;;;;;;5054586;28;20021;-65
2021/07/15 05:01:18;;;;;;;10.68;2.30;;;;;;;;;;5054163;28;20474;-68
2021/07/15 05:03:45;;;;;;;8.75;2.38;;;;;;;;;;5053841;28;20052;-70
2021/07/15 05:06:11;;;;;;;10.57;2.20;;;;;;;;;;5054149;28;20040;-68
2021/07/15 05:08:39;;;;;;;8.13;2.28;;;;;;;;;;5054193;28;20021;-67
2021/07/15 05:11:07;;;;;;;7.55;2.08;;;;;;;;;;5052827;28;20243;-69
2021/07/15 05:13:33;;;;;;;5.80;2.05;;;;;;;;;;5053622;28;20028;-66
2021/07/15 05:15:59;;;;;;;9.00;2.35;;;;;;;;;;5053939;28;20037;-64
2021/07/15 05:18:25;;;;;;;8.63;2.00;;;;;;;;;;5053935;28;20024;-65
2021/07/15 05:20:51;;;;;;;6.53;1.50;;;;;;;;;;5053793;28;20079;-64
2021/07/15 05:23:18;;;;;;;7.22;1.52;;;;;;;;;;5053784;28;20025;-65
2021/07/15 05:25:45;;;;;;;7.45;1.85;;;;;;;;;;5052405;28;20087;-69
2021/07/15 05:28:11;;;;;;;3.92;1.45;;;;;;;;;;5053516;28;20025;-64
2021/07/15 05:30:37;;;;;;;9.43;1.70;;;;;;;;;;5053804;28;20078;-66
2021/07/15 05:33:03;;;;;;;5.65;2.10;;;;;;;;;;5054544;28;20021;-65
2021/07/15 05:35:29;;;;;;;6.22;1.80;;;;;;;;;;5053357;28;20461;-66
2021/07/15 05:37:55;;;;;;;5.50;1.60;;;;;;;;;;5053007;28;20431;-65
2021/07/15 05:40:21;;;;;;;7.75;1.63;;;;;;;;;;5053486;28;20025;-65
2021/07/15 05:42:47;;;;;;;6.32;1.58;;;;;;;;;;5053174;28;20025;-65
2021/07/15 05:45:18;;;;;;;14.57;2.00;;;;;;;;;;5053340;28;20036;-65
2021/07/15 05:47:44;;;;;;;28.27;3.15;;;;;;;;;;5053604;28;20405;-65
2021/07/15 05:50:10;;;;;;;7.25;1.70;;;;;;;;;;5053345;28;20021;-66
2021/07/15 05:52:36;;;;;;;7.78;1.95;;;;;;;;;;5053034;28;20025;-69
2021/07/15 05:55:14;;;;;;;6.38;1.80;;;;;;;;;;5053239;28;20033;-68
2021/07/15 05:57:40;;;;;;;7.65;1.48;;;;;;;;;;5052708;28;20021;-67
2021/07/15 06:00:10;;;;;;;4.53;1.90;;;;;;;;;;5051643;28;20385;-66
2021/07/15 06:02:36;;;;;;;5.80;1.55;;;;;;;;;;5051113;28;20479;-65
2021/07/15 06:05:03;;;;;;;6.32;1.65;;;;;;;;;;5052278;28;20064;-68
2021/07/15 06:07:29;;;;;;;6.43;1.80;;;;;;;;;;5052551;28;20029;-66
2021/07/15 06:09:55;;;;;;;5.13;1.40;;;;;;;;;;5052972;28;20032;-70
2021/07/15 06:12:21;;;;;;;14.50;1.90;;;;;;;;;;5052880;28;20576;-65
2021/07/15 06:14:47;;;;;;;9.38;2.35;;;;;;;;;;5052139;28;20057;-65
2021/07/15 06:17:13;;;;;;;7.85;1.83;;;;;;;;;;5052531;28;20160;-67
2021/07/15 06:19:39;;;;;;;9.32;1.95;;;;;;;;;;5051729;28;20028;-67
2021/07/15 06:22:06;;;;;;;10.18;1.67;;;;;;;;;;5052272;28;20025;-66
2021/07/15 06:24:32;;;;;;;6.68;1.58;;;;;;;;;;5052637;28;20016;-67
2021/07/15 06:26:58;;;;;;;7.38;1.83;;;;;;;;;;5052550;28;20037;-66
2021/07/15 06:29:24;;;;;;;7.38;1.50;;;;;;;;;;5052484;28;20102;-66
2021/07/15 06:31:50;;;;;;;9.13;1.83;;;;;;;;;;5052650;28;20086;-67
2021/07/15 06:34:16;;;;;;;5.35;1.48;;;;;;;;;;5052302;28;20021;-66
2021/07/15 06:36:43;;;;;;;8.25;1.55;;;;;;;;;;5052992;28;20017;-67
2021/07/15 06:39:09;;;;;;;9.40;2.03;;;;;;;;;;5052770;28;20082;-66
2021/07/15 06:41:36;;;;;;;3.85;1.40;;;;;;;;;;5052778;28;20029;-67
2021/07/15 06:44:02;;;;;;;6.13;1.85;;;;;;;;;;5052847;28;20414;-67
2021/07/15 06:46:28;;;;;;;5.15;1.70;;;;;;;;;;5052900;28;20040;-66
2021/07/15 06:48:54;;;;;;;11.45;1.98;;;;;;;;;;5055639;28;20105;-67
2021/07/15 06:51:21;;;;;;;8.50;1.55;;;;;;;;;;5057065;28;20032;-67
2021/07/15 06:53:51;;;;;;;9.18;1.80;;;;;;;;;;5056745;28;20025;-67
2021/07/15 06:56:17;;;;;;;5.95;1.77;;;;;;;;;;5057164;28;20050;-66
2021/07/15 06:58:45;;;;;;;4.80;1.52;;;;;;;;;;5056754;28;20040;-66
2021/07/15 07:01:11;;;;;;;7.85;2.45;;;;;;;;;;5056680;28;20024;-66
2021/07/15 07:03:37;;;;;;;7.97;1.95;;;;;;;;;;5054972;28;20071;-67
2021/07/15 07:06:04;;;;;;;4.78;1.52;;;;;;;;;;5056572;28;20045;-67
2021/07/15 07:08:30;;;;;;;4.65;1.33;;;;;;;;;;5056563;28;20029;-66
2021/07/15 07:10:56;;;;;;;8.98;1.80;;;;;;;;;;5056415;28;20029;-67
2021/07/15 07:13:22;;;;;;;6.75;1.52;;;;;;;;;;5055982;28;20052;-67
2021/07/15 07:15:48;;;;;;;7.13;1.70;;;;;;;;;;5056404;28;20041;-67
2021/07/15 07:18:14;;;;;;;7.38;1.83;;;;;;;;;;5056450;28;20465;-67
2021/07/15 07:20:40;;;;;;;11.20;2.08;;;;;;;;;;5055593;28;20029;-67
2021/07/15 07:23:07;;;;;;;6.75;2.50;;;;;;;;;;5055972;28;20025;-67
2021/07/15 07:25:33;;;;;;;11.02;2.20;;;;;;;;;;5055674;28;20025;-67
2021/07/15 07:27:59;;;;;;;11.52;1.80;;;;;;;;;;5055529;28;20029;-67
2021/07/15 07:30:25;;;;;;;9.77;1.90;;;;;;;;;;5054910;28;20032;-66
2021/07/15 07:32:51;;;;;;;5.80;1.90;;;;;;;;;;5053566;28;20027;-66
2021/07/15 07:35:18;;;;;;;3.60;1.40;;;;;;;;;;5055781;28;20021;-66
2021/07/15 07:37:47;;;;;;;11.05;2.13;;;;;;;;;;5056167;28;20021;-66
2021/07/15 07:40:13;;;;;;;8.77;2.10;;;;;;;;;;5055976;28;20021;-66
2021/07/15 07:42:39;;;;;;;6.03;1.70;;;;;;;;;;5056057;28;20496;-66
2021/07/15 07:45:06;;;;;;;6.75;1.85;;;;;;;;;;5055517;28;20029;-66
2021/07/15 07:47:33;;;;;;;10.40;1.80;;;;;;;;;;5056070;28;20035;-66
2021/07/15 07:49:59;;;;;;;7.22;1.65;;;;;;;;;;5055462;28;20028;-67
2021/07/15 07:52:25;;;;;;;6.05;1.50;;;;;;;;;;5055188;28;20385;-67
2021/07/15 07:54:51;;;;;;;8.60;1.63;;;;;;;;;;5055364;28;20021;-67
2021/07/15 07:57:17;;;;;;;6.03;1.50;;;;;;;;;;5055493;28;20445;-67
2021/07/15 07:59:43;;;;;;;5.50;1.60;;;;;;;;;;5054629;28;20049;-67
2021/07/15 08:02:10;;;;;;;4.68;1.48;;;;;;;;;;5055583;28;20079;-66
2021/07/15 08:04:38;;;;;;;7.30;1.30;;;;;;;;;;5055228;28;20021;-66
2021/07/15 08:07:08;;;;;;;12.82;1.80;;;;;;;;;;5039442;28;20041;-66
2021/07/15 08:09:42;;;;;;;7.30;1.90;;;;;;;;;;5055079;28;20029;-67
2021/07/15 08:12:11;;;;;;;7.47;1.85;;;;;;;;;;5055740;28;20037;-67
2021/07/15 08:14:38;;;;;;;9.80;2.80;;;;;;;;;;5054753;28;20068;-66
2021/07/15 08:17:04;;;;;;;5.60;1.63;;;;;;;;;;5054812;28;20043;-66
2021/07/15 08:19:30;;;;;;;9.25;1.90;;;;;;;;;;5055022;28;20421;-67
2021/07/15 08:21:56;;;;;;;5.35;1.70;;;;;;;;;;5054223;28;20048;-67
2021/07/15 08:24:22;;;;;;;8.30;1.60;;;;;;;;;;5053378;28;20461;-66
2021/07/15 08:26:49;;;;;;;7.82;1.60;;;;;;;;;;5053056;28;20421;-68
2021/07/15 08:29:15;;;;;;;6.45;1.52;;;;;;;;;;5053995;28;20043;-67
2021/07/15 08:31:42;;;;;;;7.43;1.50;;;;;;;;;;5054767;28;20549;-68
2021/07/15 08:34:08;;;;;;;9.18;2.00;;;;;;;;;;5054595;28;20029;-67
2021/07/15 08:36:34;;;;;;;5.95;1.85;;;;;;;;;;5054777;28;20029;-67
2021/07/15 08:39:00;;;;;;;8.68;1.73;;;;;;;;;;5054615;28;20474;-67
2021/07/15 08:41:27;;;;;;;4.90;1.38;;;;;;;;;;5055010;28;20024;-66
2021/07/15 08:43:53;;;;;;;4.25;1.60;;;;;;;;;;5054452;28;20025;-67
2021/07/15 08:46:21;;;;;;;7.90;1.50;;;;;;;;;;5054457;28;20420;-67
2021/07/15 08:48:47;;;;;;;7.18;1.48;;;;;;;;;;5053244;28;20032;-69
2021/07/15 08:51:14;;;;;;;6.75;1.73;;;;;;;;;;5054411;28;20068;-73
2021/07/15 08:53:40;;;;;;;5.45;1.30;;;;;;;;;;5054341;28;20100;-69
2021/07/15 08:58:59;;;;;;;2.83;1.20;;;;;;;;;;5054409;28;20036;-70
2021/07/15 09:01:26;;;;;;;9.73;1.55;;;;;;;;;;5054249;28;20375;-67
2021/07/15 09:03:53;;;;;;;5.70;1.40;;;;;;;;;;5054122;28;20032;-68
2021/07/15 09:06:20;;;;;;;3.40;1.15;;;;;;;;;;5054031;28;20076;-67
2021/07/15 09:08:46;;;;;;;5.78;1.55;;;;;;;;;;5054220;28;20158;-67
2021/07/15 09:11:12;;;;;;;3.00;1.27;;;;;;;;;;5053952;28;20029;-67
2021/07/15 09:13:38;;;;;;;6.93;1.40;;;;;;;;;;5053853;28;20032;-67
2021/07/15 09:16:10;;;;;;;7.15;1.40;;;;;;;;;;5053754;28;20064;-67
2021/07/15 09:18:53;;;;;;;5.10;1.27;;;;;;;;;;5054006;28;20029;-67
2021/07/15 09:21:23;;;;;;;5.75;1.38;;;;;;;;;;5053105;28;20017;-68
2021/07/15 09:23:49;;;;;;;3.65;1.48;;;;;;;;;;5052204;28;20056;-67
2021/07/15 09:26:15;;;;;;;6.90;1.83;;;;;;;;;;5052577;28;20040;-67
2021/07/15 09:28:42;;;;;;;4.80;1.45;;;;;;;;;;5053762;28;20025;-67
2021/07/15 09:31:34;;;;;;;5.50;1.48;;;;;;;;;;5052626;28;20029;-67
2021/07/15 09:34:00;;;;;;;6.35;1.70;;;;;;;;;;5053574;28;20037;-67
2021/07/15 09:36:27;;;;;;;4.00;1.35;;;;;;;;;;5053885;28;20021;-67
2021/07/15 09:38:53;;;;;;;7.53;1.60;;;;;;;;;;5053697;28;20024;-67
2021/07/15 09:41:19;;;;;;;4.82;1.45;;;;;;;;;;5053647;28;20032;-67
2021/07/15 09:43:46;;;;;;;4.03;1.50;;;;;;;;;;5053578;28;20074;-67
2021/07/15 09:46:12;;;;;;;7.32;1.60;;;;;;;;;;5053484;28;20040;-67
2021/07/15 09:48:38;;;;;;;8.02;1.30;;;;;;;;;;5053157;28;20420;-67
2021/07/15 09:51:07;;;;;;;7.32;1.60;;;;;;;;;;5053390;28;20159;-67
2021/07/15 09:53:34;;;;;;;6.47;1.60;;;;;;;;;;5053662;28;20377;-67
2021/07/15 09:56:04;;;;;;;3.13;1.40;;;;;;;;;;5053340;28;20025;-67
2021/07/15 09:58:37;;;;;;;5.40;1.27;;;;;;;;;;5053344;28;20025;-67
2021/07/15 10:01:03;;;;;;;3.78;1.30;;;;;;;;;;5053102;28;20039;-67
2021/07/15 10:03:33;;;;;;;8.75;1.73;;;;;;;;;;5053543;28;20029;-67
2021/07/15 10:06:02;;;;;;;6.90;1.35;;;;;;;;;;5053342;28;20083;-67
2021/07/15 10:08:29;;;;;;;5.97;1.55;;;;;;;;;;5053286;28;20444;-67
2021/07/15 10:10:56;;;;;;;2.83;1.13;;;;;;;;;;5053166;28;20055;-67
2021/07/15 10:13:23;;;;;;;4.22;1.50;;;;;;;;;;5053210;28;20469;-67
2021/07/15 10:15:50;;;;;;;5.03;1.55;;;;;;;;;;5053168;28;20044;-67
2021/07/15 10:18:35;;;;;;;7.38;1.50;;;;;;;;;;5053190;28;20033;-67
2021/07/15 10:21:01;;;;;;;6.35;2.03;;;;;;;;;;5052965;28;20500;-67
2021/07/15 10:23:34;;;;;;;3.72;1.27;;;;;;;;;;5052492;28;20437;-67
2021/07/15 10:26:01;;;;;;;4.70;1.50;;;;;;;;;;5052925;28;20032;-67
2021/07/15 10:28:28;;;;;;;6.18;2.17;;;;;;;;;;5053047;28;20045;-67
2021/07/15 10:30:55;;;;;;;7.13;1.63;;;;;;;;;;5053072;28;20100;-67
2021/07/15 10:33:21;;;;;;;12.93;2.20;;;;;;;;;;5053002;28;20028;-67
2021/07/15 10:35:48;;;;;;;6.65;1.58;;;;;;;;;;5052973;28;20033;-67
2021/07/15 10:38:14;;;;;;;3.58;1.63;;;;;;;;;;5052868;28;20029;-68
2021/07/15 10:40:40;;;;;;;6.43;1.73;;;;;;;;;;5052762;28;20432;-67
2021/07/15 10:43:07;;;;;;;6.72;2.08;;;;;;;;;;5052515;28;20612;-67
2021/07/15 10:45:33;;;;;;;5.20;1.45;;;;;;;;;;5052498;28;20064;-67
2021/07/15 10:48:01;;;;;;;6.95;1.80;;;;;;;;;;5052617;28;20040;-67
2021/07/15 10:50:27;;;;;;;5.63;1.92;;;;;;;;;;5052484;28;20095;-67
2021/07/15 10:52:53;;;;;;;5.30;1.60;;;;;;;;;;5052801;28;20503;-67
2021/07/15 10:55:20;;;;;;;7.57;1.85;;;;;;;;;;5052919;28;20033;-67
2021/07/15 10:57:50;;;;;;;7.57;1.60;;;;;;;;;;5052719;28;20025;-68
2021/07/15 11:00:22;;;;;;;5.82;1.70;;;;;;;;;;5052627;28;20028;-67
2021/07/15 11:03:07;;;;;;;6.35;1.23;;;;;;;;;;5052843;28;20486;-67
2021/07/15 11:05:33;;;;;;;6.70;1.60;;;;;;;;;;5052824;28;20029;-67
2021/07/15 11:07:59;;;;;;;7.40;1.33;;;;;;;;;;5051688;28;20516;-67
2021/07/15 11:10:25;;;;;;;3.58;1.48;;;;;;;;;;5051715;28;20112;-66
2021/07/15 11:13:03;;;;;;;3.25;1.20;;;;;;;;;;5051200;28;20028;-67
2021/07/15 11:15:46;;;;;;;3.83;1.50;;;;;;;;;;5052075;28;20127;-67
2021/07/15 11:18:32;;;;;;;2.80;1.20;;;;;;;;;;5052736;28;20056;-69
2021/07/15 11:21:18;;;;;;;4.38;1.33;;;;;;;;;;5052104;28;20047;-67
2021/07/15 11:23:44;;;;;;;5.28;1.33;;;;;;;;;;5050354;28;20051;-67
2021/07/15 11:26:26;;;;;;;5.03;1.52;;;;;;;;;;5052352;28;20040;-66
2021/07/15 11:28:55;;;;;;;7.10;1.15;;;;;;;;;;5052420;28;20032;-66
2021/07/15 11:31:39;;;;;;;5.68;1.27;;;;;;;;;;5051982;28;20021;-67
2021/07/15 11:34:05;;;;;;;3.83;1.10;;;;;;;;;;5052173;28;20079;-67
2021/07/15 11:36:31;;;;;;;4.15;1.30;;;;;;;;;;5055402;28;20462;-67
2021/07/15 11:39:00;;;;;;;3.35;1.25;;;;;;;;;;5054549;28;20128;-67
2021/07/15 11:41:42;;;;;;;3.97;1.50;;;;;;;;;;5054685;28;20091;-67
2021/07/15 11:44:09;;;;;;;2.80;1.17;;;;;;;;;;5054695;28;20029;-67
2021/07/15 11:46:38;;;;;;;5.68;1.65;;;;;;;;;;5055458;28;20891;-67
2021/07/15 11:49:11;;;;;;;5.20;1.00;;;;;;;;;;5055034;28;20091;-67
2021/07/15 11:51:40;;;;;;;5.15;1.38;;;;;;;;;;5055819;28;20090;-67
2021/07/15 11:54:12;;;;;;;3.85;1.75;;;;;;;;;;5054322;28;20021;-67
2021/07/15 11:56:38;;;;;;;4.50;1.25;;;;;;;;;;5055780;28;20059;-67
2021/07/15 11:59:04;;;;;;;3.70;1.10;;;;;;;;;;5055498;28;20079;-67
2021/07/15 12:01:32;;;;;;;3.53;1.10;;;;;;;;;;5055433;28;20021;-67
2021/07/15 12:03:58;;;;;;;6.32;1.30;;;;;;;;;;5055284;28;20029;-68
2021/07/15 12:06:24;;;;;;;2.85;0.93;;;;;;;;;;5055124;28;20041;-68
2021/07/15 12:08:50;;;;;;;2.88;0.98;;;;;;;;;;5055283;28;20025;-68
2021/07/15 12:11:23;;;;;;;6.15;1.63;;;;;;;;;;5053569;28;20529;-67
2021/07/15 12:13:52;;;;;;;4.68;1.30;;;;;;;;;;5054327;28;20032;-67
2021/07/15 12:16:20;;;;;;;6.72;1.23;;;;;;;;;;5054506;28;20447;-68
2021/07/15 12:18:46;;;;;;;5.57;1.15;;;;;;;;;;5053834;28;20028;-68
2021/07/15 12:21:12;;;;;;;3.80;1.48;;;;;;;;;;5054971;28;20477;-68
2021/07/15 12:23:40;;;;;;;3.92;1.10;;;;;;;;;;5055094;28;20397;-68
2021/07/15 12:26:09;;;;;;;2.75;1.20;;;;;;;;;;5054715;28;20040;-68
2021/07/15 12:28:35;;;;;;;3.60;1.17;;;;;;;;;;5054552;28;20025;-69
2021/07/15 12:31:05;;;;;;;6.82;1.40;;;;;;;;;;5054901;28;20020;-68
2021/07/15 12:33:36;;;;;;;3.83;1.10;;;;;;;;;;5054545;28;20389;-68
2021/07/15 12:36:08;;;;;;;5.10;1.00;;;;;;;;;;5054552;28;20096;-67
2021/07/15 12:38:35;;;;;;;3.97;1.00;;;;;;;;;;5054682;28;20025;-67
2021/07/15 12:41:05;;;;;;;2.72;1.23;;;;;;;;;;5054508;28;20052;-67
2021/07/15 12:43:38;;;;;;;4.38;1.20;;;;;;;;;;5054489;28;20036;-67
2021/07/15 12:46:36;;;;;;;5.20;1.50;;;;;;;;;;5053934;28;20028;-67
2021/07/15 12:49:04;;;;;;;4.15;1.10;;;;;;;;;;5054047;28;20037;-68
2021/07/15 12:51:43;;;;;;;9.73;1.50;;;;;;;;;;5054505;28;20386;-67
2021/07/15 12:54:13;;;;;;;5.05;1.38;;;;;;;;;;5054243;28;20115;-67
2021/07/15 12:56:39;;;;;;;3.60;1.30;;;;;;;;;;5054248;28;20075;-67
2021/07/15 12:59:09;;;;;;;4.68;1.23;;;;;;;;;;5054764;28;20029;-68
2021/07/15 13:01:39;;;;;;;3.92;1.33;;;;;;;;;;5054416;28;20021;-68
2021/07/15 13:04:07;;;;;;;4.22;1.20;;;;;;;;;;5053976;28;20025;-68
2021/07/15 13:06:35;;;;;;;6.28;1.50;;;;;;;;;;5052649;28;20033;-68
2021/07/15 13:09:11;;;;;;;3.67;1.42;;;;;;;;;;5053667;28;20524;-67
2021/07/15 13:14:22;;;;;;;5.30;1.63;;;;;;;;;;5053990;28;20159;-68
2021/07/15 13:16:50;;;;;;;7.40;1.55;;;;;;;;;;5053992;28;20024;-68
2021/07/15 13:19:17;;;;;;;6.30;1.20;;;;;;;;;;5054009;28;20047;-68
2021/07/15 13:21:43;;;;;;;3.05;1.10;;;;;;;;;;5053898;28;20043;-68
2021/07/15 13:24:10;;;;;;;6.03;1.30;;;;;;;;;;5053630;28;20029;-68
2021/07/15 13:26:49;;;;;;;4.65;1.40;;;;;;;;;;5053739;28;20044;-68
2021/07/15 13:29:16;;;;;;;3.28;1.33;;;;;;;;;;5053512;28;20076;-68
2021/07/15 13:31:42;;;;;;;5.32;1.48;;;;;;;;;;5053865;28;20049;-67
2021/07/15 13:34:09;;;;;;;3.70;1.30;;;;;;;;;;5053648;28;20032;-67
2021/07/15 13:36:35;;;;;;;4.35;1.42;;;;;;;;;;5053591;28;20116;-67
2021/07/15 13:39:01;;;;;;;4.38;1.15;;;;;;;;;;5053419;28;20464;-67
2021/07/15 13:41:32;;;;;;;6.15;1.23;;;;;;;;;;5053475;28;20025;-67
2021/07/15 13:44:06;;;;;;;5.90;1.13;;;;;;;;;;5053311;28;20492;-68
2021/07/15 13:46:32;;;;;;;5.10;1.60;;;;;;;;;;5053459;28;20079;-67
2021/07/15 13:48:58;;;;;;;5.18;1.40;;;;;;;;;;5053514;28;20437;-68
2021/07/15 13:51:24;;;;;;;4.45;1.10;;;;;;;;;;5053179;28;20447;-68
2021/07/15 13:53:51;;;;;;;4.03;1.20;;;;;;;;;;5053035;28;20056;-68
2021/07/15 13:56:25;;;;;;;3.70;1.08;;;;;;;;;;5052461;28;20044;-68
2021/07/15 13:58:51;;;;;;;5.10;1.60;;;;;;;;;;5051853;28;20416;-68
2021/07/15 14:01:28;;;;;;;4.38;1.20;;;;;;;;;;5051572;28;20028;-67
2021/07/15 14:03:54;;;;;;;4.10;1.23;;;;;;;;;;5052913;28;20024;-68
2021/07/15 14:06:21;;;;;;;4.28;1.17;;;;;;;;;;5052637;28;20040;-69
2021/07/15 14:08:57;;;;;;;5.95;1.17;;;;;;;;;;5051970;28;20032;-68
2021/07/15 14:11:23;;;;;;;5.05;1.30;;;;;;;;;;5052685;28;20427;-69
2021/07/15 14:13:50;;;;;;;7.57;1.30;;;;;;;;;;5052318;28;20021;-72
2021/07/15 14:16:18;;;;;;;2.97;1.20;;;;;;;;;;5052396;28;20035;-69
2021/07/15 14:18:48;;;;;;;2.60;0.98;;;;;;;;;;5052515;28;20044;-67
2021/07/15 14:21:14;;;;;;;4.97;1.50;;;;;;;;;;5052730;28;20032;-67
2021/07/15 14:23:40;;;;;;;6.03;1.33;;;;;;;;;;5052701;28;20028;-72
2021/07/15 14:26:07;;;;;;;3.67;1.10;;;;;;;;;;5052714;28;20025;-67
2021/07/15 14:28:34;;;;;;;6.00;1.50;;;;;;;;;;5052091;28;20033;-68
2021/07/15 14:31:00;;;;;;;4.97;1.20;;;;;;;;;;5052423;28;20104;-67
2021/07/15 14:33:26;;;;;;;5.20;1.20;;;;;;;;;;5052136;28;20053;-68
2021/07/15 14:35:53;;;;;;;3.90;1.33;;;;;;;;;;5052245;28;20048;-67
2021/07/15 14:38:20;;;;;;;3.20;1.30;;;;;;;;;;5052604;28;20078;-67
2021/07/15 14:40:47;;;;;;;5.22;1.23;;;;;;;;;;5052518;28;20584;-68
2021/07/15 14:43:13;;;;;;;4.63;1.42;;;;;;;;;;5052610;28;20029;-68
2021/07/15 14:45:39;;;;;;;3.63;1.20;;;;;;;;;;5052582;28;20497;-67
2021/07/15 14:48:09;;;;;;;3.35;1.25;;;;;;;;;;5052927;28;20032;-67
2021/07/15 14:50:35;;;;;;;6.30;1.67;;;;;;;;;;5052342;28;20159;-67
2021/07/15 14:53:01;;;;;;;3.88;1.27;;;;;;;;;;5051954;28;20040;-67